Pelagia — PGRQ — position and weather

sailwx.info

Track history (hours):
 
Tides and Currents Weather Stations Pressure Air Temp Water Temp Dewpoint Dewpoint Depression Visibility Wind Speed Wind Dir Waves Ship Positions

Oceanographic research ship Pelagia (Netherlands)

Detailed information on ship capabilities available from University of Delaware's Ocean Information Center and ARCUS's ALIAS (Arctic Logistics Information and Support) project.

Last reported at 2018-Jan-20 10:00 UTC. Time now 2018-Jan-20 11:15 UTC.
Position N 11°30' W 064°36'.

Length 66 m; beam 13 m.

Type: Other ship. MMSI: 244925000.

Barometer 1013.1 mb

Date/timePositionNaut miles runAvg speedWind from/ knotsBaromVisibWave heightAir tempDewpointWater temp
2018-Jan-20 10:00N 11°30' W 064°36'6 5.9 1013.1
2018-Jan-20 09:00N 11°30' W 064°30'1211.8 1013.0
2018-Jan-20 08:00N 11°30' W 064°18'6 5.9 1012.8
2018-Jan-20 07:00N 11°30' W 064°12'1211.8 1012.7
2018-Jan-20 06:00N 11°30' W 064°00'6 5.9 1013.0
2018-Jan-20 05:00N 11°30' W 063°54'1211.8 1013.6
2018-Jan-20 04:00N 11°30' W 063°42'1211.8 1014.0
2018-Jan-20 03:00N 11°30' W 063°30'6 5.9 1013.9
2018-Jan-20 02:00N 11°30' W 063°24'1211.8 1013.7
2018-Jan-20 01:00N 11°30' W 063°12'1211.8 1013.4
2018-Jan-20 00:00N 11°30' W 063°00'6 5.9 1012.6
2018-Jan-19 23:00N 11°30' W 062°54'1313.2 1012.4
2018-Jan-19 22:00N 11°24' W 062°42'1211.8 1012.3
2018-Jan-19 21:00N 11°24' W 062°30'1313.2 080 / 151012.310.8 27.0 27.8
2018-Jan-19 20:00N 11°18' W 062°18'1211.8 1012.6
2018-Jan-19 19:00N 11°18' W 062°06'6 5.9 1012.8
2018-Jan-19 18:00N 11°18' W 062°00'1211.8 1013.5
2018-Jan-19 17:00N 11°18' W 061°48'8 8.4 1014.0
2018-Jan-19 16:00N 11°12' W 061°42'1211.8 1014.9
2018-Jan-19 15:00N 11°12' W 061°30'6 5.9 1015.4
2018-Jan-19 14:00N 11°12' W 061°24'1313.2 1015.4
2018-Jan-19 13:00N 11°06' W 061°12'8 8.4 1015.2
2018-Jan-19 12:00N 11°00' W 061°06'1211.8 1014.5
2018-Jan-19 11:00N 11°00' W 060°54'1313.2 1013.8
2018-Jan-19 10:00N 10°54' W 060°42'8 8.4 1013.0
2018-Jan-19 09:00N 10°48' W 060°36'6 5.9 080 / 151012.610.8 26.7 27.7
2018-Jan-19 08:00N 10°48' W 060°30'1313.2 1012.5
2018-Jan-19 07:00N 10°42' W 060°18'8 8.4 1012.5
2018-Jan-19 06:00N 10°36' W 060°12'1313.2 1012.9
2018-Jan-19 05:00N 10°30' W 060°00'6 5.9 1013.5
2018-Jan-19 04:00N 10°30' W 059°54'8 8.4 1013.9
2018-Jan-19 03:00N 10°24' W 059°48'1313.2 1014.2
2018-Jan-19 02:00N 10°18' W 059°36'6 5.9 1013.7
2018-Jan-19 01:00N 10°18' W 059°30'1313.2 1013.4
2018-Jan-19 00:00N 10°12' W 059°18'8 8.4 1012.7
2018-Jan-18 23:00N 10°06' W 059°12'1313.3 1012.1
2018-Jan-18 22:00N 10°00' W 059°00'6 5.9 1011.5
2018-Jan-18 21:00N 10°00' W 058°54'1313.3 090 / 161011.510.8 27.2 28.1
2018-Jan-18 20:00N 09°54' W 058°42'8 8.4 1011.4
2018-Jan-18 19:00N 09°48' W 058°36'1313.3 1011.5
2018-Jan-18 18:00N 09°42' W 058°24'6 5.9 1011.9
2018-Jan-18 17:00N 09°42' W 058°18'1313.3 1012.7
2018-Jan-18 16:00N 09°36' W 058°06'8 8.4 1013.5
2018-Jan-18 15:00N 09°30' W 058°00'1313.3 1014.0
2018-Jan-18 14:00N 09°24' W 057°48'1211.8 1014.1
2018-Jan-18 13:00N 09°24' W 057°36'8 8.4 1014.2
2018-Jan-18 12:00N 09°18' W 057°30'8 8.4 1013.6
2018-Jan-18 11:00N 09°12' W 057°24'1313.3 1012.4
2018-Jan-18 10:00N 09°06' W 057°12'8 8.4 1011.6
2018-Jan-18 09:00N 09°00' W 057°06'1313.3 060 / 181011.310.8 26.8 27.8
2018-Jan-18 08:00N 08°54' W 056°54'6 5.9 1011.0
2018-Jan-18 07:00N 08°54' W 056°48'1313.3 1011.2
2018-Jan-18 06:00N 08°48' W 056°36'8 8.4 1011.6
2018-Jan-18 05:00N 08°42' W 056°30'1313.3 1012.2
2018-Jan-18 04:00N 08°36' W 056°18'1211.9 1012.7
2018-Jan-18 03:00N 08°36' W 056°06'8 8.4 1012.7
2018-Jan-18 02:00N 08°30' W 056°00'8 8.4 1012.8
2018-Jan-18 01:00N 08°24' W 055°54'0 0.0 1012.2
2018-Jan-18 00:00N 08°24' W 055°54'6 5.9 1011.9
2018-Jan-17 23:00N 08°24' W 055°48'6 5.9 1011.0
2018-Jan-17 22:00N 08°24' W 055°54'0 0.0 1010.5
2018-Jan-17 21:00N 08°24' W 055°54'6 5.9 070 / 141010.5 5.4 27.1 27.9
2018-Jan-17 20:00N 08°24' W 055°48'0 0.0 1010.7
2018-Jan-17 19:00N 08°24' W 055°48'6 5.9 1010.8
2018-Jan-17 18:00N 08°24' W 055°54'0 0.0 1011.3
2018-Jan-17 17:00N 08°24' W 055°54'0 0.0 1012.4
2018-Jan-17 16:00N 08°24' W 055°54'0 0.0 1013.2
2018-Jan-17 15:00N 08°24' W 055°54'0 0.0 1013.8
2018-Jan-17 14:00N 08°24' W 055°54'0 0.0 1013.8
2018-Jan-17 13:00N 08°24' W 055°54'0 0.0 1013.9
2018-Jan-17 12:00N 08°24' W 055°54'0 0.0 1013.2
2018-Jan-17 11:00N 08°24' W 055°54'0 0.0 1011.9
2018-Jan-17 10:00N 08°24' W 055°54'0 0.0 1010.9
2018-Jan-17 09:00N 08°24' W 055°54'6 6.0 1010.7
2018-Jan-17 08:00N 08°18' W 055°54'6 6.0 1010.4
2018-Jan-17 07:00N 08°12' W 055°54'1212.0 1010.5
2018-Jan-17 06:00N 08°00' W 055°54'6 6.0 1010.8
2018-Jan-17 05:00N 07°54' W 055°54'6 6.0 1011.3
2018-Jan-17 04:00N 07°48' W 055°54'6 5.9 1011.5
2018-Jan-17 03:00N 07°48' W 055°48'0 0.0 1012.0
2018-Jan-17 02:00N 07°48' W 055°48'0 0.0 1012.3
2018-Jan-17 01:00N 07°48' W 055°48'0 0.0 1012.2
2018-Jan-17 00:00N 07°48' W 055°48'6 6.0 1011.4
2018-Jan-16 23:00N 07°42' W 055°48'1313.4 1010.4
2018-Jan-16 22:00N 07°30' W 055°42'6 5.9 1010.0
2018-Jan-16 21:00N 07°30' W 055°36'0 0.0 080 / 161009.5 5.4 27.1 27.9
2018-Jan-16 20:00N 07°30' W 055°36'109 9.1 1009.8
2018-Jan-16 08:00N 07°12' W 053°48'1211.9 1010.3
2018-Jan-16 07:00N 07°12' W 053°36'6 6.0 1010.4
2018-Jan-16 06:00N 07°12' W 053°30'1211.9 080 / 141010.6 5.4 27.1 27.0
2018-Jan-16 05:00N 07°12' W 053°18'1211.9 1011.2
2018-Jan-16 04:00N 07°12' W 053°06'6 6.0 1012.4
2018-Jan-16 03:00N 07°12' W 053°00'1211.9 1012.3
2018-Jan-16 02:00N 07°12' W 052°48'1211.9 1012.6
2018-Jan-16 01:00N 07°12' W 052°36'6 6.0 1012.5
2018-Jan-16 00:00N 07°12' W 052°30'1211.9 1012.0
2018-Jan-15 23:00N 07°12' W 052°18'18 8.9 1011.2
2018-Jan-15 21:00N 07°12' W 052°00'1211.9 070 / 201010.3 5.4 26.7 28.0
2018-Jan-15 20:00N 07°12' W 051°48'30 9.9 1010.1
2018-Jan-15 17:00N 07°12' W 051°18'6 6.0 1011.4
2018-Jan-15 16:00N 07°12' W 051°12'1211.9 1012.0
2018-Jan-15 15:00N 07°12' W 051°00'8 8.5 1012.5
2018-Jan-15 14:00N 07°06' W 050°54'1313.3 1013.1
2018-Jan-15 13:00N 07°00' W 050°42'8 8.5 1013.2
2018-Jan-15 12:00N 06°54' W 050°36'8 8.5 1012.6
2018-Jan-15 11:00N 06°48' W 050°30'1211.9 1011.7
2018-Jan-15 10:00N 06°48' W 050°18'6 6.0 1010.3
2018-Jan-15 09:00N 06°48' W 050°12'1313.3 070 / 211009.6 26.4 27.6
2018-Jan-15 08:00N 06°42' W 050°00'6 6.0 1009.5
2018-Jan-15 07:00N 06°42' W 049°54'8 8.5 1009.7
2018-Jan-15 06:00N 06°36' W 049°48'1211.9 1010.1
2018-Jan-15 05:00N 06°36' W 049°36'6 6.0 1011.3
2018-Jan-15 04:00N 06°36' W 049°30'1313.3 1011.6
2018-Jan-15 03:00N 06°30' W 049°18'6 6.0 1012.5
2018-Jan-15 02:00N 06°30' W 049°12'6 6.0 1012.7
2018-Jan-15 01:00N 06°30' W 049°06'1211.9 1012.6
2018-Jan-15 00:00N 06°30' W 048°54'6 6.0 1012.9
2018-Jan-14 23:00N 06°30' W 048°48'8 8.5 1011.6
2018-Jan-14 22:00N 06°24' W 048°42'6 6.0 1011.0
2018-Jan-14 21:00N 06°24' W 048°36'1211.9 070 / 151010.610.8 26.7 27.8
2018-Jan-14 20:00N 06°24' W 048°24'6 6.0 1010.3
2018-Jan-14 19:00N 06°24' W 048°18'8 8.5 1010.3
2018-Jan-14 18:00N 06°18' W 048°12'6 6.0 1010.5
2018-Jan-14 17:00N 06°18' W 048°06'1211.9 1011.4
2018-Jan-14 16:00N 06°18' W 047°54'8 8.5 1011.9
2018-Jan-14 15:00N 06°12' W 047°48'6 6.0 1012.3
2018-Jan-14 14:00N 06°12' W 047°42'13 6.7 1012.6
2018-Jan-14 12:00N 06°00' W 047°48'0 0.0 1011.8
2018-Jan-14 10:00N 06°00' W 047°48'0 0.0 1010.9
2018-Jan-14 09:00N 06°00' W 047°48'0 0.0 1009.9
2018-Jan-14 07:00N 06°00' W 047°48'6 6.0 1009.9
2018-Jan-14 06:00N 06°00' W 047°42'6 6.0 1010.1
2018-Jan-14 05:00N 06°00' W 047°48'0 0.0 1010.4
2018-Jan-14 04:00N 06°00' W 047°48'0 0.0 1011.3
2018-Jan-14 03:00N 06°00' W 047°48'0 0.0 1011.7
2018-Jan-14 02:00N 06°00' W 047°48'0 0.0 1011.9
2018-Jan-14 01:00N 06°00' W 047°48'0 0.0 1012.0
2018-Jan-14 00:00N 06°00' W 047°48'0 0.0 1012.1
2018-Jan-13 23:00N 06°00' W 047°48'227 7.1 1011.3
2018-Jan-12 15:00N 09°42' W 047°00'1211.8 1014.1
2018-Jan-12 14:00N 09°42' W 046°48'6 5.9 1014.5
2018-Jan-12 13:00N 09°42' W 046°42'6 5.9 1014.6
2018-Jan-12 12:00N 09°42' W 046°36'1211.8 1014.4
2018-Jan-12 11:00N 09°42' W 046°24'6 5.9 1014.0
2018-Jan-12 10:00N 09°42' W 046°18'8 8.4 1013.1
2018-Jan-12 09:00N 09°48' W 046°12'0 0.0 060 / 211012.610.8 25.9 26.9
2018-Jan-12 08:00N 09°48' W 046°12'6 5.9 1012.1
2018-Jan-12 07:00N 09°48' W 046°18'0 0.0 070 / 171012.0 5.4 26.1 27.0
2018-Jan-12 06:00N 09°48' W 046°18'6 5.9 1012.2
2018-Jan-12 05:00N 09°48' W 046°12'6 5.9 1012.7
2018-Jan-12 04:00N 09°48' W 046°18'0 0.0 1013.2
2018-Jan-12 03:00N 09°48' W 046°18'6 5.9 1013.8
2018-Jan-12 02:00N 09°48' W 046°12'8 8.4 1014.3
2018-Jan-12 01:00N 09°54' W 046°06'6 5.9 1014.5
2018-Jan-12 00:00N 09°54' W 046°12'0 0.0 1014.4
2018-Jan-11 23:00N 09°54' W 046°12'6 6.0 1014.0
2018-Jan-11 22:00N 09°48' W 046°12'0 0.0 1013.3
2018-Jan-11 21:00N 09°48' W 046°12'0 0.0 060 / 171012.910.8 26.3 27.1
2018-Jan-11 20:00N 09°48' W 046°12'0 0.0 1012.4
2018-Jan-11 19:00N 09°48' W 046°12'0 0.0 1012.2
2018-Jan-11 18:00N 09°48' W 046°12'6 5.9 1012.4
2018-Jan-11 17:00N 09°48' W 046°18'6 5.9 1012.6
2018-Jan-11 16:00N 09°48' W 046°12'8 8.4 1014.0
2018-Jan-11 15:00N 09°54' W 046°06'6 5.9 1014.8
2018-Jan-11 14:00N 09°54' W 046°12'0 0.0 1015.6
2018-Jan-11 13:00N 09°54' W 046°12'6 6.0 1015.6
2018-Jan-11 12:00N 09°48' W 046°12'0 0.0 1015.5
2018-Jan-11 11:00N 09°48' W 046°12'0 0.0 1014.8
2018-Jan-11 10:00N 09°48' W 046°12'0 0.0 1013.9
2018-Jan-11 09:00N 09°48' W 046°12'6 5.9 1013.2
2018-Jan-11 08:00N 09°48' W 046°06'1211.8 1012.9
2018-Jan-11 07:00N 09°48' W 045°54'6 5.9 1012.9
2018-Jan-11 06:00N 09°48' W 045°48'1211.8 1013.2
2018-Jan-11 05:00N 09°48' W 045°36'6 5.9 1013.8
2018-Jan-11 04:00N 09°48' W 045°30'1211.8 1014.3
2018-Jan-11 03:00N 09°48' W 045°18'1211.8 1015.0
2018-Jan-11 02:00N 09°48' W 045°06'6 5.9 1015.2
2018-Jan-11 01:00N 09°48' W 045°00'1211.8 1015.1
2018-Jan-11 00:00N 09°48' W 044°48'18 8.9 1015.0
2018-Jan-10 22:00N 09°48' W 044°30'1211.8 1014.7
2018-Jan-10 21:00N 09°48' W 044°18'6 5.9 090 / 131014.010.8 26.2 26.9
2018-Jan-10 20:00N 09°48' W 044°12'1211.8 1013.3
2018-Jan-10 19:00N 09°48' W 044°00'1211.8 1013.0
2018-Jan-10 18:00N 09°48' W 043°48'6 5.9 090 / 121012.810.8 26.1 27.0
2018-Jan-10 17:00N 09°48' W 043°42'6 5.9 1013.1
2018-Jan-10 16:00N 09°48' W 043°36'1211.8 1013.9
2018-Jan-10 15:00N 09°48' W 043°24'6 5.9 1014.7
2018-Jan-10 14:00N 09°48' W 043°18'1313.3 1014.7
2018-Jan-10 13:00N 09°54' W 043°06'1211.8 1014.8
2018-Jan-10 12:00N 09°54' W 042°54'8 8.4 1014.9
2018-Jan-10 11:00N 10°00' W 042°48'1211.8 1014.4
2018-Jan-10 10:00N 10°00' W 042°36'   1013.5
Track history (hours):
 
Tides and Currents Weather Stations Pressure Air Temp Water Temp Dewpoint Dewpoint Depression Visibility Wind Speed Wind Dir Waves Ship Positions

Oceanographic research ship Pelagia (Netherlands)

Detailed information on ship capabilities available from University of Delaware's Ocean Information Center and ARCUS's ALIAS (Arctic Logistics Information and Support) project.

Last reported at 2018-Jan-20 10:00 UTC. Time now 2018-Jan-20 11:15 UTC.
Position N 11°30' W 064°36'.

Length 66 m; beam 13 m.

Type: Other ship. MMSI: 244925000.

Barometer 1013.1 mb

Date/timePositionNaut miles runAvg speedWind from/ knotsBaromVisibWave heightAir tempDewpointWater temp
2018-Jan-20 10:00N 11°30' W 064°36'6 5.9 1013.1
2018-Jan-20 09:00N 11°30' W 064°30'1211.8 1013.0
2018-Jan-20 08:00N 11°30' W 064°18'6 5.9 1012.8
2018-Jan-20 07:00N 11°30' W 064°12'1211.8 1012.7
2018-Jan-20 06:00N 11°30' W 064°00'6 5.9 1013.0
2018-Jan-20 05:00N 11°30' W 063°54'1211.8 1013.6
2018-Jan-20 04:00N 11°30' W 063°42'1211.8 1014.0
2018-Jan-20 03:00N 11°30' W 063°30'6 5.9 1013.9
2018-Jan-20 02:00N 11°30' W 063°24'1211.8 1013.7
2018-Jan-20 01:00N 11°30' W 063°12'1211.8 1013.4
2018-Jan-20 00:00N 11°30' W 063°00'6 5.9 1012.6
2018-Jan-19 23:00N 11°30' W 062°54'1313.2 1012.4
2018-Jan-19 22:00N 11°24' W 062°42'1211.8 1012.3
2018-Jan-19 21:00N 11°24' W 062°30'1313.2 080 / 151012.310.8 27.0 27.8
2018-Jan-19 20:00N 11°18' W 062°18'1211.8 1012.6
2018-Jan-19 19:00N 11°18' W 062°06'6 5.9 1012.8
2018-Jan-19 18:00N 11°18' W 062°00'1211.8 1013.5
2018-Jan-19 17:00N 11°18' W 061°48'8 8.4 1014.0
2018-Jan-19 16:00N 11°12' W 061°42'1211.8 1014.9
2018-Jan-19 15:00N 11°12' W 061°30'6 5.9 1015.4
2018-Jan-19 14:00N 11°12' W 061°24'1313.2 1015.4
2018-Jan-19 13:00N 11°06' W 061°12'8 8.4 1015.2
2018-Jan-19 12:00N 11°00' W 061°06'1211.8 1014.5
2018-Jan-19 11:00N 11°00' W 060°54'1313.2 1013.8
2018-Jan-19 10:00N 10°54' W 060°42'8 8.4 1013.0
2018-Jan-19 09:00N 10°48' W 060°36'6 5.9 080 / 151012.610.8 26.7 27.7
2018-Jan-19 08:00N 10°48' W 060°30'1313.2 1012.5
2018-Jan-19 07:00N 10°42' W 060°18'8 8.4 1012.5
2018-Jan-19 06:00N 10°36' W 060°12'1313.2 1012.9
2018-Jan-19 05:00N 10°30' W 060°00'6 5.9 1013.5
2018-Jan-19 04:00N 10°30' W 059°54'8 8.4 1013.9
2018-Jan-19 03:00N 10°24' W 059°48'1313.2 1014.2
2018-Jan-19 02:00N 10°18' W 059°36'6 5.9 1013.7
2018-Jan-19 01:00N 10°18' W 059°30'1313.2 1013.4
2018-Jan-19 00:00N 10°12' W 059°18'8 8.4 1012.7
2018-Jan-18 23:00N 10°06' W 059°12'1313.3 1012.1
2018-Jan-18 22:00N 10°00' W 059°00'6 5.9 1011.5
2018-Jan-18 21:00N 10°00' W 058°54'1313.3 090 / 161011.510.8 27.2 28.1
2018-Jan-18 20:00N 09°54' W 058°42'8 8.4 1011.4
2018-Jan-18 19:00N 09°48' W 058°36'1313.3 1011.5
2018-Jan-18 18:00N 09°42' W 058°24'6 5.9 1011.9
2018-Jan-18 17:00N 09°42' W 058°18'1313.3 1012.7
2018-Jan-18 16:00N 09°36' W 058°06'8 8.4 1013.5
2018-Jan-18 15:00N 09°30' W 058°00'1313.3 1014.0
2018-Jan-18 14:00N 09°24' W 057°48'1211.8 1014.1
2018-Jan-18 13:00N 09°24' W 057°36'8 8.4 1014.2
2018-Jan-18 12:00N 09°18' W 057°30'8 8.4 1013.6
2018-Jan-18 11:00N 09°12' W 057°24'1313.3 1012.4
2018-Jan-18 10:00N 09°06' W 057°12'8 8.4 1011.6
2018-Jan-18 09:00N 09°00' W 057°06'1313.3 060 / 181011.310.8 26.8 27.8
2018-Jan-18 08:00N 08°54' W 056°54'6 5.9 1011.0
2018-Jan-18 07:00N 08°54' W 056°48'1313.3 1011.2
2018-Jan-18 06:00N 08°48' W 056°36'8 8.4 1011.6
2018-Jan-18 05:00N 08°42' W 056°30'1313.3 1012.2
2018-Jan-18 04:00N 08°36' W 056°18'1211.9 1012.7
2018-Jan-18 03:00N 08°36' W 056°06'8 8.4 1012.7
2018-Jan-18 02:00N 08°30' W 056°00'8 8.4 1012.8
2018-Jan-18 01:00N 08°24' W 055°54'0 0.0 1012.2
2018-Jan-18 00:00N 08°24' W 055°54'6 5.9 1011.9
2018-Jan-17 23:00N 08°24' W 055°48'6 5.9 1011.0
2018-Jan-17 22:00N 08°24' W 055°54'0 0.0 1010.5
2018-Jan-17 21:00N 08°24' W 055°54'6 5.9 070 / 141010.5 5.4 27.1 27.9
2018-Jan-17 20:00N 08°24' W 055°48'0 0.0 1010.7
2018-Jan-17 19:00N 08°24' W 055°48'6 5.9 1010.8
2018-Jan-17 18:00N 08°24' W 055°54'0 0.0 1011.3
2018-Jan-17 17:00N 08°24' W 055°54'0 0.0 1012.4
2018-Jan-17 16:00N 08°24' W 055°54'0 0.0 1013.2
2018-Jan-17 15:00N 08°24' W 055°54'0 0.0 1013.8
2018-Jan-17 14:00N 08°24' W 055°54'0 0.0 1013.8
2018-Jan-17 13:00N 08°24' W 055°54'0 0.0 1013.9
2018-Jan-17 12:00N 08°24' W 055°54'0 0.0 1013.2
2018-Jan-17 11:00N 08°24' W 055°54'0 0.0 1011.9
2018-Jan-17 10:00N 08°24' W 055°54'0 0.0 1010.9
2018-Jan-17 09:00N 08°24' W 055°54'6 6.0 1010.7
2018-Jan-17 08:00N 08°18' W 055°54'6 6.0 1010.4
2018-Jan-17 07:00N 08°12' W 055°54'1212.0 1010.5
2018-Jan-17 06:00N 08°00' W 055°54'6 6.0 1010.8
2018-Jan-17 05:00N 07°54' W 055°54'6 6.0 1011.3
2018-Jan-17 04:00N 07°48' W 055°54'6 5.9 1011.5
2018-Jan-17 03:00N 07°48' W 055°48'0 0.0 1012.0
2018-Jan-17 02:00N 07°48' W 055°48'0 0.0 1012.3
2018-Jan-17 01:00N 07°48' W 055°48'0 0.0 1012.2
2018-Jan-17 00:00N 07°48' W 055°48'6 6.0 1011.4
2018-Jan-16 23:00N 07°42' W 055°48'1313.4 1010.4
2018-Jan-16 22:00N 07°30' W 055°42'6 5.9 1010.0
2018-Jan-16 21:00N 07°30' W 055°36'0 0.0 080 / 161009.5 5.4 27.1 27.9
2018-Jan-16 20:00N 07°30' W 055°36'109 9.1 1009.8
2018-Jan-16 08:00N 07°12' W 053°48'1211.9 1010.3
2018-Jan-16 07:00N 07°12' W 053°36'6 6.0 1010.4
2018-Jan-16 06:00N 07°12' W 053°30'1211.9 080 / 141010.6 5.4 27.1 27.0
2018-Jan-16 05:00N 07°12' W 053°18'1211.9 1011.2
2018-Jan-16 04:00N 07°12' W 053°06'6 6.0 1012.4
2018-Jan-16 03:00N 07°12' W 053°00'1211.9 1012.3
2018-Jan-16 02:00N 07°12' W 052°48'1211.9 1012.6
2018-Jan-16 01:00N 07°12' W 052°36'6 6.0 1012.5
2018-Jan-16 00:00N 07°12' W 052°30'1211.9 1012.0
2018-Jan-15 23:00N 07°12' W 052°18'18 8.9 1011.2
2018-Jan-15 21:00N 07°12' W 052°00'1211.9 070 / 201010.3 5.4 26.7 28.0
2018-Jan-15 20:00N 07°12' W 051°48'30 9.9 1010.1
2018-Jan-15 17:00N 07°12' W 051°18'6 6.0 1011.4
2018-Jan-15 16:00N 07°12' W 051°12'1211.9 1012.0
2018-Jan-15 15:00N 07°12' W 051°00'8 8.5 1012.5
2018-Jan-15 14:00N 07°06' W 050°54'1313.3 1013.1
2018-Jan-15 13:00N 07°00' W 050°42'8 8.5 1013.2
2018-Jan-15 12:00N 06°54' W 050°36'8 8.5 1012.6
2018-Jan-15 11:00N 06°48' W 050°30'1211.9 1011.7
2018-Jan-15 10:00N 06°48' W 050°18'6 6.0 1010.3
2018-Jan-15 09:00N 06°48' W 050°12'1313.3 070 / 211009.6 26.4 27.6
2018-Jan-15 08:00N 06°42' W 050°00'6 6.0 1009.5
2018-Jan-15 07:00N 06°42' W 049°54'8 8.5 1009.7
2018-Jan-15 06:00N 06°36' W 049°48'1211.9 1010.1
2018-Jan-15 05:00N 06°36' W 049°36'6 6.0 1011.3
2018-Jan-15 04:00N 06°36' W 049°30'1313.3 1011.6
2018-Jan-15 03:00N 06°30' W 049°18'6 6.0 1012.5
2018-Jan-15 02:00N 06°30' W 049°12'6 6.0 1012.7
2018-Jan-15 01:00N 06°30' W 049°06'1211.9 1012.6
2018-Jan-15 00:00N 06°30' W 048°54'6 6.0 1012.9
2018-Jan-14 23:00N 06°30' W 048°48'8 8.5 1011.6
2018-Jan-14 22:00N 06°24' W 048°42'6 6.0 1011.0
2018-Jan-14 21:00N 06°24' W 048°36'1211.9 070 / 151010.610.8 26.7 27.8
2018-Jan-14 20:00N 06°24' W 048°24'6 6.0 1010.3
2018-Jan-14 19:00N 06°24' W 048°18'8 8.5 1010.3
2018-Jan-14 18:00N 06°18' W 048°12'6 6.0 1010.5
2018-Jan-14 17:00N 06°18' W 048°06'1211.9 1011.4
2018-Jan-14 16:00N 06°18' W 047°54'8 8.5 1011.9
2018-Jan-14 15:00N 06°12' W 047°48'6 6.0 1012.3
2018-Jan-14 14:00N 06°12' W 047°42'13 6.7 1012.6
2018-Jan-14 12:00N 06°00' W 047°48'0 0.0 1011.8
2018-Jan-14 10:00N 06°00' W 047°48'0 0.0 1010.9
2018-Jan-14 09:00N 06°00' W 047°48'0 0.0 1009.9
2018-Jan-14 07:00N 06°00' W 047°48'6 6.0 1009.9
2018-Jan-14 06:00N 06°00' W 047°42'6 6.0 1010.1
2018-Jan-14 05:00N 06°00' W 047°48'0 0.0 1010.4
2018-Jan-14 04:00N 06°00' W 047°48'0 0.0 1011.3
2018-Jan-14 03:00N 06°00' W 047°48'0 0.0 1011.7
2018-Jan-14 02:00N 06°00' W 047°48'0 0.0 1011.9
2018-Jan-14 01:00N 06°00' W 047°48'0 0.0 1012.0
2018-Jan-14 00:00N 06°00' W 047°48'0 0.0 1012.1
2018-Jan-13 23:00N 06°00' W 047°48'227 7.1 1011.3
2018-Jan-12 15:00N 09°42' W 047°00'1211.8 1014.1
2018-Jan-12 14:00N 09°42' W 046°48'6 5.9 1014.5
2018-Jan-12 13:00N 09°42' W 046°42'6 5.9 1014.6
2018-Jan-12 12:00N 09°42' W 046°36'1211.8 1014.4
2018-Jan-12 11:00N 09°42' W 046°24'6 5.9 1014.0
2018-Jan-12 10:00N 09°42' W 046°18'8 8.4 1013.1
2018-Jan-12 09:00N 09°48' W 046°12'0 0.0 060 / 211012.610.8 25.9 26.9
2018-Jan-12 08:00N 09°48' W 046°12'6 5.9 1012.1
2018-Jan-12 07:00N 09°48' W 046°18'0 0.0 070 / 171012.0 5.4 26.1 27.0
2018-Jan-12 06:00N 09°48' W 046°18'6 5.9 1012.2
2018-Jan-12 05:00N 09°48' W 046°12'6 5.9 1012.7
2018-Jan-12 04:00N 09°48' W 046°18'0 0.0 1013.2
2018-Jan-12 03:00N 09°48' W 046°18'6 5.9 1013.8
2018-Jan-12 02:00N 09°48' W 046°12'8 8.4 1014.3
2018-Jan-12 01:00N 09°54' W 046°06'6 5.9 1014.5
2018-Jan-12 00:00N 09°54' W 046°12'0 0.0 1014.4
2018-Jan-11 23:00N 09°54' W 046°12'6 6.0 1014.0
2018-Jan-11 22:00N 09°48' W 046°12'0 0.0 1013.3
2018-Jan-11 21:00N 09°48' W 046°12'0 0.0 060 / 171012.910.8 26.3 27.1
2018-Jan-11 20:00N 09°48' W 046°12'0 0.0 1012.4
2018-Jan-11 19:00N 09°48' W 046°12'0 0.0 1012.2
2018-Jan-11 18:00N 09°48' W 046°12'6 5.9 1012.4
2018-Jan-11 17:00N 09°48' W 046°18'6 5.9 1012.6
2018-Jan-11 16:00N 09°48' W 046°12'8 8.4 1014.0
2018-Jan-11 15:00N 09°54' W 046°06'6 5.9 1014.8
2018-Jan-11 14:00N 09°54' W 046°12'0 0.0 1015.6
2018-Jan-11 13:00N 09°54' W 046°12'6 6.0 1015.6
2018-Jan-11 12:00N 09°48' W 046°12'0 0.0 1015.5
2018-Jan-11 11:00N 09°48' W 046°12'0 0.0 1014.8
2018-Jan-11 10:00N 09°48' W 046°12'0 0.0 1013.9
2018-Jan-11 09:00N 09°48' W 046°12'6 5.9 1013.2
2018-Jan-11 08:00N 09°48' W 046°06'1211.8 1012.9
2018-Jan-11 07:00N 09°48' W 045°54'6 5.9 1012.9
2018-Jan-11 06:00N 09°48' W 045°48'1211.8 1013.2
2018-Jan-11 05:00N 09°48' W 045°36'6 5.9 1013.8
2018-Jan-11 04:00N 09°48' W 045°30'1211.8 1014.3
2018-Jan-11 03:00N 09°48' W 045°18'1211.8 1015.0
2018-Jan-11 02:00N 09°48' W 045°06'6 5.9 1015.2
2018-Jan-11 01:00N 09°48' W 045°00'1211.8 1015.1
2018-Jan-11 00:00N 09°48' W 044°48'18 8.9 1015.0
2018-Jan-10 22:00N 09°48' W 044°30'1211.8 1014.7
2018-Jan-10 21:00N 09°48' W 044°18'6 5.9 090 / 131014.010.8 26.2 26.9
2018-Jan-10 20:00N 09°48' W 044°12'1211.8 1013.3
2018-Jan-10 19:00N 09°48' W 044°00'1211.8 1013.0
2018-Jan-10 18:00N 09°48' W 043°48'6 5.9 090 / 121012.810.8 26.1 27.0
2018-Jan-10 17:00N 09°48' W 043°42'6 5.9 1013.1
2018-Jan-10 16:00N 09°48' W 043°36'1211.8 1013.9
2018-Jan-10 15:00N 09°48' W 043°24'6 5.9 1014.7
2018-Jan-10 14:00N 09°48' W 043°18'1313.3 1014.7
2018-Jan-10 13:00N 09°54' W 043°06'1211.8 1014.8
2018-Jan-10 12:00N 09°54' W 042°54'8 8.4 1014.9
2018-Jan-10 11:00N 10°00' W 042°48'1211.8 1014.4
2018-Jan-10 10:00N 10°00' W 042°36'   1013.5

Dump ship's entire track history